Time;durP1;ratioP1;P1;durP2;ratioP2;P2;SDS_P1;SDS_P2;PMS_P1;PMS_P2;Temp;Humidity;BMP_temperature;BMP_pressure;BME280_temperature;BME280_humidity;BME280_pressure;Samples;Min_cycle;Max_cycle;Signal;HPM_P1;HPM_P2
2023/10/10 00:00:23;;;;;;;21.23;16.85;;;18.40;99.90;;;;;;2098027;28;20569;-74
2023/10/10 00:01:24;;;;;;;27.17;21.42;;;18.40;99.90;;;;;;2098355;28;20467;-74
2023/10/10 00:02:28;;;;;;;19.42;15.88;;;18.30;99.90;;;;;;2099812;28;20509;-74
2023/10/10 00:03:31;;;;;;;21.98;17.90;;;18.40;99.90;;;;;;2099678;28;20028;-74
2023/10/10 00:04:35;;;;;;;26.25;20.15;;;18.40;99.90;;;;;;2099307;28;20117;-74
2023/10/10 00:05:36;;;;;;;27.20;21.50;;;18.40;99.90;;;;;;2099425;28;20438;-74
2023/10/10 00:06:40;;;;;;;29.10;21.83;;;18.30;99.90;;;;;;2099947;28;20036;-74
2023/10/10 00:07:42;;;;;;;21.10;17.45;;;18.30;99.90;;;;;;2099029;28;20047;-74
2023/10/10 00:08:46;;;;;;;27.48;21.38;;;18.30;99.90;;;;;;2097881;28;20460;-74
2023/10/10 00:09:47;;;;;;;26.65;20.80;;;18.30;99.90;;;;;;2098831;28;20039;-74
2023/10/10 00:10:50;;;;;;;21.55;18.60;;;18.30;99.90;;;;;;2098028;28;20581;-74
2023/10/10 00:11:51;;;;;;;23.42;19.63;;;18.30;99.90;;;;;;2098586;28;20036;-74
2023/10/10 00:12:51;;;;;;;30.90;22.85;;;18.30;99.90;;;;;;2099723;28;20055;-74
2023/10/10 00:14:05;;;;;;;21.13;17.85;;;18.30;99.90;;;;;;2097236;28;20032;-73
2023/10/10 00:15:22;;;;;;;25.52;21.88;;;18.30;99.90;;;;;;2099099;28;20031;-74
2023/10/10 00:16:27;;;;;;;28.42;22.10;;;18.30;99.90;;;;;;2098142;28;20079;-74
2023/10/10 00:17:34;;;;;;;29.95;22.45;;;18.20;99.90;;;;;;2097045;28;20511;-74
2023/10/10 00:18:38;;;;;;;22.88;20.25;;;18.20;99.90;;;;;;2099069;28;20032;-74
2023/10/10 00:19:45;;;;;;;26.05;20.17;;;18.20;99.90;;;;;;2100067;28;20104;-72
2023/10/10 00:21:04;;;;;;;21.63;17.52;;;18.20;99.90;;;;;;2098907;28;20110;-73
2023/10/10 00:22:07;;;;;;;23.75;17.33;;;18.20;99.90;;;;;;2098020;28;21100;-72
2023/10/10 00:23:11;;;;;;;21.50;19.25;;;18.20;99.90;;;;;;2098352;28;20062;-72
2023/10/10 00:24:14;;;;;;;23.48;19.48;;;18.20;99.90;;;;;;2098357;28;20109;-71
2023/10/10 00:25:16;;;;;;;21.52;18.63;;;18.10;99.90;;;;;;2101496;28;20028;-72
2023/10/10 00:26:20;;;;;;;26.67;20.88;;;18.20;99.90;;;;;;2099747;28;20487;-72
2023/10/10 00:27:23;;;;;;;27.33;21.77;;;18.20;99.90;;;;;;2098569;28;20059;-73
2023/10/10 00:28:27;;;;;;;24.95;20.60;;;18.10;99.90;;;;;;2098883;28;20021;-72
2023/10/10 00:29:28;;;;;;;25.73;21.20;;;18.10;99.90;;;;;;2096840;28;20013;-72
2023/10/10 00:30:34;;;;;;;22.02;18.50;;;18.10;99.90;;;;;;2099811;28;20337;-72
2023/10/10 00:31:38;;;;;;;26.30;20.90;;;18.10;99.90;;;;;;2098780;28;20040;-72
2023/10/10 00:32:45;;;;;;;20.15;16.90;;;18.10;99.90;;;;;;2098489;28;20063;-72
2023/10/10 00:33:50;;;;;;;27.88;19.92;;;18.10;99.90;;;;;;2097828;28;20021;-72
2023/10/10 00:34:51;;;;;;;28.88;23.67;;;18.10;99.90;;;;;;2098171;28;20557;-73
2023/10/10 00:35:51;;;;;;;28.05;22.23;;;18.10;99.90;;;;;;2098803;28;20509;-72
2023/10/10 00:36:52;;;;;;;23.92;19.88;;;18.00;99.90;;;;;;2097681;28;20024;-72
2023/10/10 00:37:53;;;;;;;24.02;19.58;;;18.00;99.90;;;;;;2096697;28;20028;-73
2023/10/10 00:38:58;;;;;;;20.38;17.08;;;18.10;99.90;;;;;;2099459;28;20028;-72
2023/10/10 00:40:02;;;;;;;22.20;18.10;;;18.00;99.90;;;;;;2097823;28;20020;-72
2023/10/10 00:41:07;;;;;;;25.65;20.80;;;18.00;99.90;;;;;;2099200;28;20085;-72
2023/10/10 00:42:19;;;;;;;21.58;17.30;;;18.00;99.90;;;;;;2098244;28;20483;-72
2023/10/10 00:43:23;;;;;;;25.00;20.00;;;18.00;99.90;;;;;;2098236;28;20091;-72
2023/10/10 00:44:25;;;;;;;23.65;17.00;;;18.00;99.90;;;;;;2090593;28;20598;-72
2023/10/10 00:45:32;;;;;;;27.60;21.42;;;18.00;99.90;;;;;;2097525;28;20122;-72
2023/10/10 00:46:32;;;;;;;28.80;22.35;;;17.90;99.90;;;;;;2096979;28;20024;-72
2023/10/10 00:47:38;;;;;;;24.48;19.52;;;17.90;99.90;;;;;;2099693;28;20024;-72
2023/10/10 00:48:39;;;;;;;26.10;21.88;;;18.00;99.90;;;;;;2098748;28;20024;-72
2023/10/10 00:49:44;;;;;;;26.52;22.92;;;17.90;99.90;;;;;;2099486;28;20698;-72
2023/10/10 00:50:47;;;;;;;28.70;20.73;;;17.90;99.90;;;;;;2097769;28;20514;-72
2023/10/10 00:51:47;;;;;;;24.45;20.50;;;17.90;99.90;;;;;;2098525;28;20028;-73
2023/10/10 00:52:53;;;;;;;30.13;22.98;;;17.90;99.90;;;;;;2099785;28;20700;-72
2023/10/10 00:54:10;;;;;;;28.00;22.20;;;17.90;99.90;;;;;;2099122;28;20090;-72
2023/10/10 00:55:12;;;;;;;25.15;20.58;;;17.90;99.90;;;;;;2097550;28;20348;-72
2023/10/10 00:56:14;;;;;;;28.35;23.80;;;17.80;99.90;;;;;;2100115;28;20016;-72
2023/10/10 00:57:16;;;;;;;27.25;23.55;;;17.80;99.90;;;;;;2098992;28;20027;-72
2023/10/10 00:58:22;;;;;;;27.80;22.33;;;17.80;99.90;;;;;;2099614;28;20020;-72
2023/10/10 00:59:43;;;;;;;26.90;21.58;;;17.80;99.90;;;;;;2101581;28;20023;-72
2023/10/10 01:00:47;;;;;;;30.80;24.20;;;17.80;99.90;;;;;;2097512;28;20066;-72
2023/10/10 01:01:49;;;;;;;23.98;19.83;;;17.80;99.90;;;;;;2096401;28;20496;-73
2023/10/10 01:03:01;;;;;;;28.50;24.63;;;17.80;99.90;;;;;;2098879;28;20033;-72
2023/10/10 01:04:01;;;;;;;33.03;25.10;;;17.80;99.90;;;;;;2098005;28;20472;-72
2023/10/10 01:05:12;;;;;;;30.17;25.60;;;17.80;99.90;;;;;;2098375;28;20432;-71
2023/10/10 01:06:24;;;;;;;24.80;21.48;;;17.80;99.90;;;;;;2098654;28;20394;-72
2023/10/10 01:07:29;;;;;;;24.58;19.30;;;17.80;99.90;;;;;;2099019;28;20028;-73
2023/10/10 01:08:49;;;;;;;26.90;19.33;;;17.80;99.90;;;;;;2100354;28;20379;-72
2023/10/10 01:09:56;;;;;;;;;;;17.70;99.90;;;;;;2100063;28;20492;-71
2023/10/10 01:11:02;;;;;;;22.65;18.02;;;17.70;99.90;;;;;;2099241;28;19959;-72
2023/10/10 01:12:06;;;;;;;29.10;23.58;;;17.70;99.90;;;;;;2094314;28;20031;-72
2023/10/10 01:13:10;;;;;;;27.00;21.42;;;17.70;99.90;;;;;;2096936;28;20431;-72
2023/10/10 01:14:18;;;;;;;24.23;19.00;;;17.70;99.90;;;;;;2100596;28;20021;-72
2023/10/10 01:15:34;;;;;;;22.73;19.80;;;17.70;99.90;;;;;;2099199;28;20016;-72
2023/10/10 01:16:35;;;;;;;34.92;24.15;;;17.70;99.90;;;;;;2096916;28;20475;-72
2023/10/10 01:17:38;;;;;;;25.60;21.45;;;17.70;99.90;;;;;;2098492;28;20036;-72
2023/10/10 01:18:40;;;;;;;31.00;22.90;;;17.70;99.90;;;;;;2101161;28;20514;-72
2023/10/10 01:19:44;;;;;;;24.08;21.00;;;17.70;99.90;;;;;;2103822;28;20028;-72
2023/10/10 01:20:50;;;;;;;30.63;23.20;;;17.70;99.90;;;;;;2097399;28;20024;-72
2023/10/10 01:21:51;;;;;;;22.20;18.05;;;17.70;99.90;;;;;;2098799;28;20020;-72
2023/10/10 01:22:56;;;;;;;30.52;22.83;;;17.70;99.90;;;;;;2097349;28;20058;-72
2023/10/10 01:24:11;;;;;;;33.15;23.50;;;17.70;99.90;;;;;;2099042;28;20067;-72
2023/10/10 01:25:40;;;;;;;27.35;22.15;;;17.70;99.90;;;;;;2099346;28;20022;-71
2023/10/10 01:26:44;;;;;;;20.10;16.63;;;17.70;99.90;;;;;;2099240;28;20643;-72
2023/10/10 01:27:45;;;;;;;23.08;18.20;;;17.70;99.90;;;;;;2098302;28;20117;-72
2023/10/10 01:28:45;;;;;;;27.23;22.60;;;17.70;99.90;;;;;;2098130;28;20020;-73
2023/10/10 01:30:17;;;;;;;25.90;20.73;;;17.70;99.90;;;;;;2100463;28;20045;-72
2023/10/10 01:31:17;;;;;;;27.73;20.98;;;17.70;99.90;;;;;;2099541;28;20032;-72
2023/10/10 01:32:20;;;;;;;27.38;21.02;;;17.70;99.90;;;;;;2098839;28;20024;-72
2023/10/10 01:34:44;;;;;;;29.30;24.15;;;17.60;99.90;;;;;;2099546;28;20036;-72
2023/10/10 01:35:44;;;;;;;27.13;21.80;;;17.60;99.90;;;;;;2097709;28;20025;-72
2023/10/10 01:36:50;;;;;;;25.30;19.38;;;17.60;99.90;;;;;;2089852;28;20669;-72
2023/10/10 01:37:54;;;;;;;29.42;23.10;;;17.60;99.90;;;;;;2094558;28;20479;-72
2023/10/10 01:39:19;;;;;;;33.95;25.15;;;17.60;99.90;;;;;;2101431;28;20453;-72
2023/10/10 01:40:20;;;;;;;27.38;20.95;;;17.60;99.90;;;;;;2098740;28;20020;-72
2023/10/10 01:41:31;;;;;;;31.10;22.70;;;17.60;99.90;;;;;;2097313;28;20044;-71
2023/10/10 01:42:35;;;;;;;21.48;18.27;;;17.60;99.90;;;;;;2098365;28;20032;-72
2023/10/10 01:43:36;;;;;;;30.83;24.20;;;17.60;99.90;;;;;;2098090;28;20379;-73
2023/10/10 01:44:37;;;;;;;31.55;26.02;;;17.60;99.90;;;;;;2094821;28;20120;-72
2023/10/10 01:45:41;;;;;;;29.88;24.65;;;17.60;99.90;;;;;;2097983;28;20028;-72
2023/10/10 01:46:42;;;;;;;31.27;23.98;;;17.60;99.90;;;;;;2099050;28;20131;-72
2023/10/10 01:47:56;;;;;;;29.23;24.58;;;17.60;99.90;;;;;;2093290;28;20033;-73
2023/10/10 01:48:57;;;;;;;24.38;20.30;;;17.60;99.90;;;;;;2090330;28;20408;-73
2023/10/10 01:49:58;;;;;;;27.50;24.35;;;17.60;99.90;;;;;;2096065;28;20051;-72
2023/10/10 01:51:00;;;;;;;31.60;25.50;;;17.60;99.90;;;;;;2098453;28;20522;-71
2023/10/10 01:52:00;;;;;;;27.85;21.15;;;17.60;99.90;;;;;;2099136;28;20031;-72
2023/10/10 01:53:01;;;;;;;28.50;25.00;;;17.60;99.90;;;;;;2096727;28;20099;-72
2023/10/10 01:54:12;;;;;;;25.30;19.88;;;17.60;99.90;;;;;;2097033;28;20120;-72
2023/10/10 01:55:16;;;;;;;32.03;22.65;;;17.60;99.90;;;;;;2099643;28;20020;-72
2023/10/10 01:56:17;;;;;;;35.53;26.77;;;17.60;99.90;;;;;;2096361;28;20044;-72
2023/10/10 01:57:24;;;;;;;31.15;25.15;;;17.60;99.90;;;;;;2096450;28;20063;-72
2023/10/10 01:58:25;;;;;;;32.28;26.67;;;17.60;99.90;;;;;;2097559;28;20017;-72
2023/10/10 01:59:35;;;;;;;27.25;22.60;;;17.60;99.90;;;;;;2096989;28;21253;-72
2023/10/10 02:00:36;;;;;;;27.75;21.98;;;17.60;99.90;;;;;;2097671;28;20040;-72
2023/10/10 02:01:38;;;;;;;23.30;19.25;;;17.60;99.90;;;;;;2098332;28;20024;-73
2023/10/10 02:02:41;;;;;;;24.35;19.92;;;17.60;99.90;;;;;;2098370;28;20533;-72
2023/10/10 02:03:42;;;;;;;28.67;23.60;;;17.60;99.90;;;;;;2097415;28;20064;-72
2023/10/10 02:04:44;;;;;;;25.92;20.02;;;17.60;99.90;;;;;;2098272;28;20113;-72
2023/10/10 02:05:45;;;;;;;33.47;25.67;;;17.60;99.90;;;;;;2097659;28;20028;-72
2023/10/10 02:06:47;;;;;;;26.10;22.02;;;17.60;99.90;;;;;;2098943;28;20138;-72
2023/10/10 02:07:53;;;;;;;31.58;26.63;;;17.60;99.90;;;;;;2096757;28;20029;-72
2023/10/10 02:09:09;;;;;;;35.55;28.33;;;17.60;99.90;;;;;;2096773;28;20051;-72
2023/10/10 02:10:13;;;;;;;30.67;26.67;;;17.60;99.90;;;;;;2098358;28;20036;-72
2023/10/10 02:11:13;;;;;;;39.58;31.25;;;17.50;99.90;;;;;;2096366;28;20040;-72
2023/10/10 02:12:16;;;;;;;35.92;29.30;;;17.50;99.90;;;;;;2099423;28;20088;-71
2023/10/10 02:13:17;;;;;;;28.50;23.50;;;17.50;99.90;;;;;;2098883;28;20048;-72
2023/10/10 02:14:19;;;;;;;24.17;20.55;;;17.60;99.90;;;;;;2096530;28;20020;-72
2023/10/10 02:15:25;;;;;;;37.90;31.20;;;17.50;99.90;;;;;;2096899;28;20126;-72
2023/10/10 02:16:35;;;;;;;42.58;34.90;;;17.50;99.90;;;;;;2097380;28;20031;-73
2023/10/10 02:17:39;;;;;;;38.63;29.77;;;17.50;99.90;;;;;;2096628;28;20090;-72
2023/10/10 02:18:44;;;;;;;48.38;34.85;;;17.50;99.90;;;;;;2090567;28;20056;-72
2023/10/10 02:19:52;;;;;;;42.28;35.55;;;17.50;99.90;;;;;;2097124;28;20025;-73
2023/10/10 02:20:54;;;;;;;31.25;25.67;;;17.50;99.90;;;;;;2097882;28;20493;-72
2023/10/10 02:22:22;;;;;;;38.13;31.95;;;17.50;99.90;;;;;;2089349;28;20050;-73
2023/10/10 02:25:37;;;;;;;36.53;31.85;;;17.50;99.90;;;;;;2098826;28;20028;-72
2023/10/10 02:26:38;;;;;;;36.45;31.80;;;17.40;99.90;;;;;;2097281;28;20055;-72
2023/10/10 02:27:54;;;;;;;42.80;37.83;;;17.40;99.90;;;;;;2097835;28;20039;-72
2023/10/10 02:29:48;;;;;;;36.75;31.15;;;17.40;99.90;;;;;;2097963;28;20020;-72
2023/10/10 02:30:22;;;;;;;38.47;33.47;;;17.40;99.90;;;;;;2095405;28;20095;-72
2023/10/10 02:31:28;;;;;;;46.05;36.30;;;17.40;99.90;;;;;;2096136;28;20027;-72
2023/10/10 02:32:29;;;;;;;49.28;42.67;;;17.40;99.90;;;;;;2097821;28;20171;-72
2023/10/10 02:33:31;;;;;;;43.00;36.35;;;17.40;99.90;;;;;;2097930;28;20140;-72
2023/10/10 02:34:34;;;;;;;44.83;38.38;;;17.40;99.90;;;;;;2097347;28;20083;-73
2023/10/10 02:35:54;;;;;;;38.35;33.95;;;17.40;99.90;;;;;;2097149;28;20021;-73
2023/10/10 02:37:30;;;;;;;46.65;40.90;;;17.40;99.90;;;;;;2099652;28;20032;-73
2023/10/10 02:38:36;;;;;;;44.70;38.22;;;17.30;99.90;;;;;;2097802;28;20082;-72
2023/10/10 02:39:42;;;;;;;48.17;38.80;;;17.30;99.90;;;;;;2095604;28;20025;-74
2023/10/10 02:40:43;;;;;;;49.85;42.97;;;17.30;99.90;;;;;;2095326;28;20020;-74
2023/10/10 02:41:49;;;;;;;49.35;40.75;;;17.30;99.90;;;;;;2100027;28;20017;-74
2023/10/10 02:43:09;;;;;;;40.92;36.33;;;17.30;99.90;;;;;;2099028;28;20139;-74
2023/10/10 02:44:09;;;;;;;51.80;42.85;;;17.30;99.90;;;;;;2096536;28;20213;-74
2023/10/10 02:45:13;;;;;;;54.03;45.63;;;17.20;99.90;;;;;;2098836;28;20531;-74
2023/10/10 02:46:20;;;;;;;56.28;46.63;;;17.20;99.90;;;;;;2098338;28;20027;-74
2023/10/10 02:47:30;;;;;;;54.05;45.13;;;17.20;99.90;;;;;;2099271;28;20024;-74
2023/10/10 02:48:34;;;;;;;46.50;40.60;;;17.20;99.90;;;;;;2099066;28;20090;-74
2023/10/10 02:49:37;;;;;;;42.70;34.97;;;17.20;99.90;;;;;;2098565;28;20545;-74
2023/10/10 02:50:40;;;;;;;47.97;40.05;;;17.20;99.90;;;;;;2099736;28;20103;-74
2023/10/10 02:51:43;;;;;;;42.28;34.63;;;17.20;99.90;;;;;;2102519;28;20039;-74
2023/10/10 02:52:46;;;;;;;39.53;34.47;;;17.20;99.90;;;;;;2101637;28;20069;-74
2023/10/10 02:53:47;;;;;;;44.55;38.70;;;17.20;99.90;;;;;;2098588;28;20036;-74
2023/10/10 02:54:54;;;;;;;43.83;37.00;;;17.20;99.90;;;;;;2102016;28;20646;-74
2023/10/10 02:56:01;;;;;;;46.05;40.22;;;17.20;99.90;;;;;;2099723;28;20031;-74
2023/10/10 02:58:28;;;;;;;45.67;39.05;;;17.10;99.90;;;;;;2098459;28;20021;-74
2023/10/10 02:59:32;;;;;;;41.15;36.70;;;17.10;99.90;;;;;;2101180;28;20580;-74
2023/10/10 03:00:34;;;;;;;49.58;43.83;;;17.10;99.90;;;;;;2101814;28;20563;-74
2023/10/10 03:01:55;;;;;;;56.40;48.65;;;17.10;99.90;;;;;;2098150;28;20574;-75
2023/10/10 03:02:59;;;;;;;56.42;49.47;;;17.10;99.90;;;;;;2097896;28;20040;-74
2023/10/10 03:04:03;;;;;;;48.58;40.17;;;17.10;99.90;;;;;;2099281;28;20085;-74
2023/10/10 03:06:06;;;;;;;44.47;38.17;;;17.10;99.90;;;;;;2098419;28;20028;-74
2023/10/10 03:07:07;;;;;;;52.60;45.38;;;17.10;99.90;;;;;;2098444;28;20032;-74
2023/10/10 03:08:14;;;;;;;44.05;37.53;;;17.10;99.90;;;;;;2097904;28;20017;-74
2023/10/10 03:10:38;;;;;;;55.78;49.28;;;17.10;99.90;;;;;;2098492;28;20032;-74
2023/10/10 03:11:53;;;;;;;56.65;46.03;;;17.10;99.90;;;;;;2099747;28;20027;-74
2023/10/10 03:13:05;;;;;;;57.92;48.38;;;17.10;99.90;;;;;;2101407;28;20258;-74
2023/10/10 03:14:13;;;;;;;42.92;38.10;;;17.10;99.90;;;;;;2102059;28;20578;-74
2023/10/10 03:17:43;;;;;;;53.30;45.53;;;17.10;99.90;;;;;;2100115;28;20020;-73
2023/10/10 03:20:14;;;;;;;70.75;62.40;;;17.10;99.90;;;;;;2099736;28;20029;-74
2023/10/10 03:21:25;;;;;;;56.42;47.78;;;17.10;99.90;;;;;;2101358;28;20082;-74
2023/10/10 03:22:30;;;;;;;69.35;56.20;;;17.10;99.90;;;;;;2098195;28;20028;-74
2023/10/10 03:23:53;;;;;;;76.05;62.35;;;17.10;99.90;;;;;;2099993;28;20023;-74
2023/10/10 03:25:07;;;;;;;69.75;60.22;;;17.10;99.90;;;;;;2099717;28;20032;-74
2023/10/10 03:26:18;;;;;;;80.80;61.78;;;17.10;99.90;;;;;;2097435;28;20424;-74
2023/10/10 03:28:21;;;;;;;77.85;63.38;;;17.10;99.90;;;;;;2098779;28;20506;-74
2023/10/10 03:29:36;;;;;;;72.30;59.13;;;17.10;99.90;;;;;;2099501;28;20032;-74
2023/10/10 03:30:52;;;;;;;72.20;58.53;;;17.10;99.90;;;;;;2098198;28;20039;-74
2023/10/10 03:32:18;;;;;;;69.53;56.60;;;17.10;99.90;;;;;;2099566;28;20024;-74
2023/10/10 03:33:36;;;;;;;70.15;54.30;;;17.10;99.90;;;;;;2099661;28;20043;-74
2023/10/10 03:34:56;;;;;;;62.17;51.47;;;17.10;99.90;;;;;;2098580;28;20038;-74
2023/10/10 03:36:02;;;;;;;64.88;52.30;;;17.10;99.90;;;;;;2098064;28;20032;-74
2023/10/10 03:37:29;;;;;;;65.20;51.25;;;17.10;99.90;;;;;;2099704;28;20032;-74
2023/10/10 03:39:49;;;;;;;59.13;46.70;;;17.20;99.90;;;;;;2099001;28;20033;-74
2023/10/10 05:23:58;;;;;;;56.75;36.88;;;17.20;99.90;;;;;;2099311;28;20032;-72
2023/10/10 05:24:59;;;;;;;59.05;38.17;;;17.20;99.90;;;;;;2098937;28;20028;-72
2023/10/10 05:26:02;;;;;;;57.72;37.03;;;17.30;99.90;;;;;;2095874;28;20067;-72
2023/10/10 05:27:02;;;;;;;60.72;38.88;;;17.30;99.90;;;;;;2099224;28;20431;-72
2023/10/10 05:28:03;;;;;;;56.65;35.25;;;17.20;99.90;;;;;;2098639;28;20057;-73
2023/10/10 05:29:06;;;;;;;50.83;33.97;;;17.30;99.90;;;;;;2096533;28;20032;-73
2023/10/10 05:30:45;;;;;;;55.17;35.83;;;17.30;99.90;;;;;;2098055;28;20415;-72
2023/10/10 05:31:37;;;;;;;48.97;31.10;;;17.30;99.90;;;;;;2095903;28;20071;-73
2023/10/10 05:32:54;;;;;;;54.75;35.80;;;17.30;99.90;;;;;;2097292;28;20033;-72
2023/10/10 05:33:56;;;;;;;63.13;39.08;;;17.30;99.90;;;;;;2098775;28;20028;-72
2023/10/10 05:34:58;;;;;;;58.47;37.25;;;17.20;99.90;;;;;;2097860;28;20027;-72
2023/10/10 05:36:06;;;;;;;62.40;38.80;;;17.30;99.90;;;;;;2097135;28;20052;-72
2023/10/10 05:37:07;;;;;;;50.58;34.03;;;17.20;99.90;;;;;;2097570;28;20024;-73
2023/10/10 05:38:08;;;;;;;55.80;36.25;;;17.20;99.90;;;;;;2096468;28;20108;-72
2023/10/10 05:39:12;;;;;;;53.42;36.45;;;17.30;99.90;;;;;;2098152;28;20051;-72
2023/10/10 05:40:13;;;;;;;54.25;34.28;;;17.20;99.90;;;;;;2098276;28;20036;-73
2023/10/10 05:41:14;;;;;;;46.92;30.17;;;17.20;99.90;;;;;;2097346;28;20097;-73
2023/10/10 05:42:20;;;;;;;49.03;33.72;;;17.20;99.90;;;;;;2097929;28;20020;-72
2023/10/10 05:43:26;;;;;;;54.13;35.05;;;17.20;99.90;;;;;;2097212;28;20671;-72
2023/10/10 05:44:26;;;;;;;41.42;28.30;;;17.20;99.90;;;;;;2096722;28;20032;-73
2023/10/10 05:45:29;;;;;;;48.50;33.25;;;17.20;99.90;;;;;;2098924;28;20170;-72
2023/10/10 05:46:30;;;;;;;35.60;24.27;;;17.20;99.90;;;;;;2098322;28;20043;-73
2023/10/10 05:47:31;;;;;;;40.97;28.92;;;17.20;99.90;;;;;;2098875;28;20016;-72
2023/10/10 05:48:32;;;;;;;58.80;37.55;;;17.20;99.90;;;;;;2100102;28;20022;-73
2023/10/10 05:49:33;;;;;;;61.75;38.17;;;17.20;99.90;;;;;;2097645;28;20170;-72
2023/10/10 05:50:34;;;;;;;58.70;39.65;;;17.20;99.90;;;;;;2099526;28;20020;-72
2023/10/10 05:51:35;;;;;;;49.15;31.77;;;17.20;99.90;;;;;;2098645;28;20027;-72
2023/10/10 05:52:38;;;;;;;53.38;34.22;;;17.20;99.90;;;;;;2097798;28;20028;-72
2023/10/10 05:53:39;;;;;;;52.10;32.38;;;17.20;99.90;;;;;;2097648;28;20621;-72
2023/10/10 05:54:40;;;;;;;50.97;34.03;;;17.20;99.90;;;;;;2098822;28;20059;-72
2023/10/10 05:55:41;;;;;;;47.60;31.35;;;17.20;99.90;;;;;;2098233;28;20020;-73
2023/10/10 05:56:44;;;;;;;63.70;39.67;;;17.20;99.90;;;;;;2098316;28;20027;-72
2023/10/10 05:57:45;;;;;;;52.13;33.80;;;17.20;99.90;;;;;;2090731;28;20013;-72
2023/10/10 05:58:47;;;;;;;52.45;36.33;;;17.20;99.90;;;;;;2098783;28;20426;-72
2023/10/10 05:59:47;;;;;;;60.65;37.30;;;17.20;99.90;;;;;;2098039;28;20024;-73
2023/10/10 06:00:51;;;;;;;57.85;37.10;;;17.20;99.90;;;;;;2097725;28;20029;-72
2023/10/10 06:01:53;;;;;;;52.47;34.85;;;17.20;99.90;;;;;;2098148;28;20036;-72
2023/10/10 06:02:53;;;;;;;60.90;38.63;;;17.20;99.90;;;;;;2098472;28;20024;-72
2023/10/10 06:03:55;;;;;;;55.00;39.15;;;17.20;99.90;;;;;;2094871;28;20135;-73
2023/10/10 06:04:57;;;;;;;55.58;34.60;;;17.20;99.90;;;;;;2097643;28;20105;-72
2023/10/10 06:05:58;;;;;;;48.92;35.67;;;17.20;99.90;;;;;;2098374;28;20391;-72
2023/10/10 06:06:59;;;;;;;58.00;37.03;;;17.20;99.90;;;;;;2099173;28;20467;-72
2023/10/10 06:08:01;;;;;;;58.42;36.70;;;17.20;99.90;;;;;;2098785;28;20525;-71
2023/10/10 06:09:04;;;;;;;53.03;35.10;;;17.20;99.90;;;;;;2098114;28;20082;-74
2023/10/10 06:10:06;;;;;;;54.78;36.70;;;17.20;99.90;;;;;;2098682;28;20032;-74
2023/10/10 06:11:06;;;;;;;44.60;31.52;;;17.20;99.90;;;;;;2098775;28;20047;-74
2023/10/10 06:12:09;;;;;;;45.88;31.05;;;17.20;99.90;;;;;;2097329;28;20024;-74
2023/10/10 06:13:11;;;;;;;56.70;34.90;;;17.20;99.90;;;;;;2098927;28;20020;-73
2023/10/10 06:14:11;;;;;;;51.92;35.08;;;17.20;99.90;;;;;;2098209;28;20039;-73
2023/10/10 06:15:16;;;;;;;50.97;34.72;;;17.20;99.90;;;;;;2098551;28;20028;-73
2023/10/10 06:16:17;;;;;;;50.60;33.30;;;17.20;99.90;;;;;;2096987;28;20380;-73
2023/10/10 06:17:17;;;;;;;48.92;33.10;;;17.20;99.90;;;;;;2098799;28;20021;-74
2023/10/10 06:18:18;;;;;;;50.47;32.72;;;17.20;99.90;;;;;;2097507;28;20015;-73
2023/10/10 06:19:20;;;;;;;57.25;39.13;;;17.20;99.90;;;;;;2096953;28;20086;-73
2023/10/10 06:20:21;;;;;;;51.60;36.17;;;17.20;99.90;;;;;;2098439;28;20012;-74
2023/10/10 06:21:22;;;;;;;57.42;38.22;;;17.20;99.90;;;;;;2099459;28;20028;-73
2023/10/10 06:22:24;;;;;;;62.15;38.55;;;17.20;99.90;;;;;;2096590;28;20032;-73
2023/10/10 06:23:25;;;;;;;62.40;41.70;;;17.20;99.90;;;;;;2098531;28;20028;-73
2023/10/10 06:24:26;;;;;;;64.53;41.67;;;17.20;99.90;;;;;;2098432;28;20020;-73
2023/10/10 06:25:29;;;;;;;63.42;44.08;;;17.20;99.90;;;;;;2099135;28;20031;-73
2023/10/10 06:26:29;;;;;;;63.88;42.33;;;17.20;99.90;;;;;;2096973;28;20016;-74
2023/10/10 06:27:32;;;;;;;69.43;44.60;;;17.20;99.90;;;;;;2098324;28;20016;-73
2023/10/10 06:28:42;;;;;;;66.97;44.88;;;17.20;99.90;;;;;;2100252;28;20087;-73
2023/10/10 06:29:43;;;;;;;64.50;45.85;;;17.20;99.90;;;;;;2102955;28;20805;-74
2023/10/10 06:30:44;;;;;;;65.55;47.67;;;17.20;99.90;;;;;;2098910;28;20039;-74
2023/10/10 06:31:45;;;;;;;66.20;45.20;;;17.20;99.90;;;;;;2099617;28;20055;-74
2023/10/10 06:32:48;;;;;;;66.03;45.10;;;17.20;99.90;;;;;;2097691;28;20074;-73
2023/10/10 06:33:50;;;;;;;69.45;47.88;;;17.20;99.90;;;;;;2098549;28;20028;-73
2023/10/10 06:35:04;;;;;;;71.63;47.28;;;17.20;99.90;;;;;;2097404;28;20054;-73
2023/10/10 06:37:26;;;;;;;68.13;45.25;;;17.20;99.90;;;;;;2098312;28;20028;-73
2023/10/10 06:38:27;;;;;;;70.05;46.08;;;17.20;99.90;;;;;;2098097;28;20025;-72
2023/10/10 06:39:32;;;;;;;69.15;47.92;;;17.20;99.90;;;;;;2099439;28;20048;-73
2023/10/10 06:40:33;;;;;;;70.03;48.45;;;17.20;99.90;;;;;;2097036;28;20027;-73
2023/10/10 06:41:38;;;;;;;73.57;47.10;;;17.20;99.90;;;;;;2100377;28;20035;-73
2023/10/10 06:42:39;;;;;;;63.10;45.88;;;17.20;99.90;;;;;;2098352;28;20032;-73
2023/10/10 06:43:42;;;;;;;66.30;45.55;;;17.30;99.90;;;;;;2096324;28;20120;-73
2023/10/10 06:44:47;;;;;;;69.40;48.22;;;17.20;99.90;;;;;;2098868;28;20116;-74
2023/10/10 06:45:54;;;;;;;64.32;46.60;;;17.20;99.90;;;;;;2096008;28;20142;-74
2023/10/10 06:46:55;;;;;;;67.45;45.53;;;17.20;99.90;;;;;;2098442;28;20031;-74
2023/10/10 06:47:56;;;;;;;69.63;47.15;;;17.30;99.90;;;;;;2095862;28;20028;-74
2023/10/10 06:49:04;;;;;;;62.42;45.55;;;17.30;99.90;;;;;;2084996;28;20087;-74
2023/10/10 06:50:11;;;;;;;62.63;45.92;;;17.30;99.90;;;;;;2078684;28;23419;-74
2023/10/10 06:51:11;;;;;;;64.38;44.58;;;17.30;99.90;;;;;;2081451;28;20036;-74
2023/10/10 06:52:18;;;;;;;64.50;45.70;;;17.30;99.90;;;;;;2082445;28;20039;-74
2023/10/10 06:53:36;;;;;;;64.80;45.67;;;17.30;99.90;;;;;;2083115;28;20034;-73
2023/10/10 06:54:44;;;;;;;62.53;44.30;;;17.30;99.90;;;;;;2078659;28;20036;-74
2023/10/10 06:55:45;;;;;;;67.55;44.50;;;17.30;99.90;;;;;;2088218;28;20024;-75
2023/10/10 06:57:04;;;;;;;68.88;44.55;;;17.30;99.90;;;;;;2096565;28;20094;-74
2023/10/10 06:58:08;;;;;;;66.00;44.85;;;17.40;99.90;;;;;;2081369;28;20070;-74
2023/10/10 06:59:16;;;;;;;64.47;45.10;;;17.40;99.90;;;;;;2081993;28;20395;-74
2023/10/10 07:01:19;;;;;;;67.80;45.28;;;17.40;99.90;;;;;;2081406;28;20034;-74
2023/10/10 07:02:21;;;;;;;65.50;46.20;;;17.40;99.90;;;;;;2082988;28;20038;-74
2023/10/10 07:03:30;;;;;;;58.75;42.53;;;17.40;99.90;;;;;;2082182;28;20614;-74
2023/10/10 07:04:35;;;;;;;65.25;45.25;;;17.40;99.90;;;;;;2083535;28;20033;-74
2023/10/10 07:05:39;;;;;;;64.80;45.92;;;17.40;99.90;;;;;;2081809;28;20040;-73
2023/10/10 07:06:47;;;;;;;58.53;43.85;;;17.40;99.90;;;;;;2082062;28;20021;-73
2023/10/10 07:08:34;;;;;;;64.15;46.47;;;17.50;99.90;;;;;;2081550;28;20574;-74
2023/10/10 07:09:15;;;;;;;58.88;42.53;;;17.50;99.90;;;;;;2076712;28;20064;-74
2023/10/10 07:10:25;;;;;;;61.05;45.35;;;17.50;99.90;;;;;;2082542;28;20384;-73
2023/10/10 07:11:26;;;;;;;65.80;46.10;;;17.50;99.90;;;;;;2080156;28;20026;-73
2023/10/10 07:12:28;;;;;;;61.67;43.33;;;17.50;99.90;;;;;;2081345;28;20018;-73
2023/10/10 07:13:29;;;;;;;67.78;45.92;;;17.50;99.90;;;;;;2083542;28;20116;-73
2023/10/10 07:14:36;;;;;;;65.68;44.90;;;17.50;99.90;;;;;;2081827;28;20025;-74
2023/10/10 07:15:39;;;;;;;63.58;43.55;;;17.60;99.90;;;;;;2084936;28;20790;-73
2023/10/10 07:16:42;;;;;;;62.15;43.72;;;17.60;99.90;;;;;;2083464;28;20055;-73
2023/10/10 07:17:49;;;;;;;63.42;45.03;;;17.60;99.90;;;;;;2083443;28;20068;-73
2023/10/10 07:18:56;;;;;;;61.10;43.90;;;17.60;99.90;;;;;;2082458;28;20025;-73
2023/10/10 07:21:36;;;;;;;63.45;43.53;;;17.60;99.90;;;;;;2083311;28;20048;-73
2023/10/10 07:22:33;;;;;;;57.47;42.05;;;17.70;99.90;;;;;;2080950;28;20123;-72
2023/10/10 07:23:38;;;;;;;62.75;41.70;;;17.70;99.90;;;;;;2083095;28;20041;-72
2023/10/10 07:24:41;;;;;;;59.45;43.30;;;17.70;99.90;;;;;;2082533;28;20116;-73
2023/10/10 07:25:57;;;;;;;59.30;43.35;;;17.70;99.90;;;;;;2082930;28;20033;-73
2023/10/10 07:27:00;;;;;;;59.78;41.80;;;17.80;99.90;;;;;;2082085;28;20037;-72
2023/10/10 07:28:01;;;;;;;60.00;42.38;;;17.80;99.90;;;;;;2082604;28;20518;-73
2023/10/10 07:29:26;;;;;;;55.17;41.00;;;17.70;99.90;;;;;;2085774;28;20036;-72
2023/10/10 07:30:33;;;;;;;56.92;39.53;;;17.80;99.90;;;;;;2084335;28;20141;-72
2023/10/10 07:31:34;;;;;;;53.42;39.15;;;17.80;99.90;;;;;;2086776;28;21050;-73
2023/10/10 07:32:39;;;;;;;52.97;38.72;;;17.80;99.90;;;;;;2084935;28;20417;-73